createdAt,value
2019-03-04T00:01:57.023Z,0.60
2019-03-04T00:04:25.211Z,0.50
2019-03-04T00:06:53.319Z,0.62
2019-03-04T00:09:21.428Z,0.80
2019-03-04T00:11:49.668Z,0.60
2019-03-04T00:14:17.843Z,0.55
2019-03-04T00:16:45.909Z,0.90
2019-03-04T00:19:14.314Z,0.80
2019-03-04T00:21:42.387Z,0.62
2019-03-04T00:24:10.483Z,0.70
2019-03-04T00:26:38.554Z,0.70
2019-03-04T00:29:08.098Z,0.80
2019-03-04T00:31:36.160Z,0.70
2019-03-04T00:34:04.247Z,0.90
2019-03-04T00:36:32.353Z,0.50
2019-03-04T00:39:00.438Z,0.90
2019-03-04T00:41:28.527Z,0.80
2019-03-04T00:43:56.638Z,0.70
2019-03-04T00:46:24.807Z,0.55
2019-03-04T00:48:52.924Z,0.50
2019-03-04T00:51:22.269Z,0.60
2019-03-04T00:53:50.621Z,0.50
2019-03-04T00:56:18.795Z,0.50
2019-03-04T00:58:48.473Z,0.60
2019-03-04T01:01:16.622Z,0.50
2019-03-04T01:03:44.711Z,0.50
2019-03-04T01:06:12.778Z,0.60
2019-03-04T01:08:40.857Z,0.50
2019-03-04T01:11:08.998Z,0.60
2019-03-04T01:13:37.079Z,0.50
2019-03-04T01:16:05.326Z,0.60
2019-03-04T01:18:33.538Z,0.55
2019-03-04T01:21:01.600Z,0.57
2019-03-04T01:23:29.741Z,0.40
2019-03-04T01:25:58.532Z,0.40
2019-03-04T01:28:26.661Z,0.47
2019-03-04T01:30:54.824Z,0.50
2019-03-04T01:33:23.011Z,0.50
2019-03-04T01:35:51.293Z,0.42
2019-03-04T01:38:19.507Z,0.50
2019-03-04T01:40:47.723Z,0.50
2019-03-04T01:43:15.889Z,0.60
2019-03-04T01:45:45.509Z,0.50
2019-03-04T01:48:13.746Z,0.50
2019-03-04T01:50:41.825Z,0.62
2019-03-04T01:53:09.974Z,0.60
2019-03-04T01:55:39.119Z,0.70
2019-03-04T01:58:07.170Z,0.45
2019-03-04T02:00:35.298Z,0.45
2019-03-04T02:03:03.515Z,0.57
2019-03-04T02:05:31.593Z,0.40
2019-03-04T02:07:59.679Z,0.30
2019-03-04T02:10:28.099Z,0.50
2019-03-04T02:12:56.221Z,0.50
2019-03-04T02:15:24.310Z,0.28
2019-03-04T02:17:52.478Z,0.40
2019-03-04T02:20:20.654Z,0.33
2019-03-04T02:22:48.824Z,0.30
2019-03-04T02:25:35.472Z,0.25
2019-03-04T02:28:03.623Z,0.28
2019-03-04T02:30:31.703Z,0.20
2019-03-04T02:32:59.853Z,0.28
2019-03-04T02:35:28.032Z,0.30
2019-03-04T02:37:56.107Z,0.20
2019-03-04T02:40:24.173Z,0.15
2019-03-04T02:42:52.249Z,0.20
2019-03-04T02:45:20.336Z,0.20
2019-03-04T02:47:48.395Z,0.20
2019-03-04T02:50:16.556Z,0.30
2019-03-04T02:52:44.683Z,0.20
2019-03-04T02:55:15.414Z,0.28
2019-03-04T02:57:43.542Z,0.30
2019-03-04T03:00:13.227Z,0.30
2019-03-04T03:02:42.489Z,0.25
2019-03-04T03:05:10.724Z,0.20
2019-03-04T03:07:39.017Z,0.20
2019-03-04T03:10:11.616Z,0.20
2019-03-04T03:12:39.771Z,0.10
2019-03-04T03:15:09.603Z,0.30
2019-03-04T03:17:37.751Z,0.20
2019-03-04T03:20:12.647Z,0.20
2019-03-04T03:22:40.865Z,0.50
2019-03-04T03:25:09.750Z,0.20
2019-03-04T03:27:37.985Z,0.20
2019-03-04T03:30:08.001Z,0.10
2019-03-04T03:32:36.189Z,0.10
2019-03-04T03:35:08.114Z,0.20
2019-03-04T03:37:35.291Z,0.10
2019-03-04T03:40:05.319Z,0.20
2019-03-04T03:42:33.554Z,0.20
2019-03-04T03:45:01.824Z,0.20
2019-03-04T03:47:30.051Z,0.30
2019-03-04T03:49:58.128Z,0.15
2019-03-04T03:52:26.252Z,0.23
2019-03-04T03:54:54.382Z,0.10
2019-03-04T03:57:22.435Z,0.33
2019-03-04T03:59:50.564Z,0.25
2019-03-04T04:02:18.700Z,0.10
2019-03-04T04:04:46.754Z,0.10
2019-03-04T04:07:15.904Z,0.20
2019-03-04T04:09:44.082Z,0.20
2019-03-04T04:12:12.161Z,0.10
2019-03-04T04:14:40.310Z,0.20
2019-03-04T04:17:08.465Z,0.10
2019-03-04T04:19:36.602Z,0.10
2019-03-04T04:22:05.909Z,0.13
2019-03-04T04:24:34.052Z,0.20
2019-03-04T04:27:02.329Z,0.20
2019-03-04T04:29:30.390Z,0.20
2019-03-04T04:31:58.473Z,0.20
2019-03-04T04:34:26.575Z,0.20
2019-03-04T04:36:54.913Z,0.10
2019-03-04T04:39:23.040Z,0.30
2019-03-04T04:41:51.485Z,0.30
2019-03-04T04:44:19.562Z,0.30
2019-03-04T04:46:48.731Z,0.20
2019-03-04T04:49:16.869Z,0.20
2019-03-04T04:51:44.975Z,0.20
2019-03-04T04:54:13.420Z,0.30
2019-03-04T04:56:41.544Z,0.20
2019-03-04T04:59:09.707Z,0.25
2019-03-04T05:01:37.835Z,0.25
2019-03-04T05:04:05.918Z,0.35
2019-03-04T05:06:34.021Z,0.20
2019-03-04T05:09:02.093Z,0.30
2019-03-04T05:11:31.850Z,0.30
2019-03-04T05:13:59.953Z,0.10
2019-03-04T05:16:28.175Z,0.20
2019-03-04T05:18:56.325Z,0.40
2019-03-04T05:21:26.829Z,0.45
2019-03-04T05:23:54.930Z,0.40
2019-03-04T05:26:23.146Z,0.40
2019-03-04T05:28:51.249Z,0.20
2019-03-04T05:31:19.370Z,0.30
2019-03-04T05:33:47.613Z,0.40
2019-03-04T05:36:15.802Z,0.30
2019-03-04T05:38:43.973Z,0.30
2019-03-04T05:41:12.123Z,0.30
2019-03-04T05:43:40.253Z,0.30
2019-03-04T05:46:08.301Z,0.20
2019-03-04T05:48:36.396Z,0.20
2019-03-04T05:51:04.743Z,0.30
2019-03-04T05:53:33.937Z,0.20
2019-03-04T05:56:02.113Z,0.30
2019-03-04T05:58:30.247Z,0.20
2019-03-04T06:01:16.284Z,0.20
2019-03-04T06:03:45.325Z,0.00
2019-03-04T06:06:13.434Z,0.10
2019-03-04T06:08:41.794Z,0.20
2019-03-04T06:11:09.924Z,0.20
2019-03-04T06:13:37.994Z,0.30
2019-03-04T06:16:06.113Z,0.40
2019-03-04T06:18:34.226Z,0.50
2019-03-04T06:21:02.599Z,0.40
2019-03-04T06:23:31.854Z,0.50
2019-03-04T06:26:01.791Z,0.47
2019-03-04T06:28:30.019Z,0.40
2019-03-04T06:30:58.361Z,0.60
2019-03-04T06:33:26.550Z,0.45
2019-03-04T06:35:54.832Z,0.62
2019-03-04T06:38:23.098Z,0.68
2019-03-04T06:40:51.242Z,0.30
2019-03-04T06:43:19.298Z,0.50
2019-03-04T06:45:47.409Z,0.50
2019-03-04T06:48:16.504Z,0.60
2019-03-04T06:50:45.467Z,0.50
2019-03-04T06:53:15.128Z,0.30
2019-03-04T06:55:44.737Z,0.40
2019-03-04T06:58:12.802Z,0.30
2019-03-04T07:00:42.465Z,0.50
2019-03-04T07:03:10.639Z,0.57
2019-03-04T07:05:48.444Z,0.50
2019-03-04T07:08:36.576Z,0.70
2019-03-04T07:11:05.881Z,0.60
2019-03-04T07:13:34.020Z,0.40
2019-03-04T07:16:02.164Z,0.50
2019-03-04T07:18:30.335Z,0.50
2019-03-04T07:20:58.476Z,0.40
2019-03-04T07:23:26.620Z,0.50
2019-03-04T07:25:54.726Z,0.60
2019-03-04T07:28:22.844Z,0.47
2019-03-04T07:30:50.996Z,0.40
2019-03-04T07:33:19.084Z,0.40
2019-03-04T07:35:47.206Z,0.50
2019-03-04T07:38:20.844Z,0.42
2019-03-04T07:40:48.962Z,0.60
2019-03-04T07:43:17.043Z,0.40
2019-03-04T07:45:45.189Z,0.53
2019-03-04T07:48:13.271Z,0.60
2019-03-04T07:50:41.429Z,0.50
2019-03-04T07:53:09.556Z,0.70
2019-03-04T07:55:38.027Z,0.30
2019-03-04T07:58:06.110Z,0.40
2019-03-04T08:00:34.282Z,0.82
2019-03-04T08:03:02.356Z,0.60
2019-03-04T08:05:30.426Z,0.60
2019-03-04T08:08:02.492Z,0.80
2019-03-04T08:10:38.150Z,0.60
2019-03-04T08:13:10.763Z,0.50
2019-03-04T08:15:39.336Z,0.93
2019-03-04T08:18:07.540Z,0.40
2019-03-04T08:20:35.939Z,0.50
2019-03-04T08:23:04.388Z,0.30
2019-03-04T08:25:32.481Z,0.20
2019-03-04T08:28:00.537Z,0.55
2019-03-04T08:30:28.700Z,0.30
2019-03-04T08:32:56.773Z,0.40
2019-03-04T08:35:24.935Z,0.30
2019-03-04T08:37:53.060Z,0.30
2019-03-04T08:40:21.222Z,0.30
2019-03-04T08:42:49.297Z,0.30
2019-03-04T08:45:18.915Z,0.20
2019-03-04T08:47:47.692Z,0.20
2019-03-04T08:50:17.799Z,0.10
2019-03-04T08:52:46.048Z,0.20
2019-03-04T08:55:15.724Z,0.13
2019-03-04T08:57:44.025Z,0.20
2019-03-04T09:00:16.517Z,0.10
2019-03-04T09:02:44.602Z,0.10
2019-03-04T09:05:14.603Z,0.20
2019-03-04T09:07:42.718Z,0.33
2019-03-04T09:10:12.400Z,0.20
2019-03-04T09:12:40.751Z,0.28
2019-03-04T09:15:12.554Z,0.28
2019-03-04T09:17:40.721Z,0.30
2019-03-04T09:20:10.388Z,0.20
2019-03-04T09:22:38.509Z,0.20
2019-03-04T09:25:08.162Z,0.20
2019-03-04T09:27:36.214Z,0.40
2019-03-04T09:30:05.968Z,0.30
2019-03-04T09:32:34.043Z,0.30
2019-03-04T09:35:02.120Z,0.20
2019-03-04T09:37:30.267Z,0.30
2019-03-04T09:39:58.444Z,0.20
2019-03-04T09:42:27.733Z,0.35
2019-03-04T09:44:56.628Z,0.30
2019-03-04T09:47:29.868Z,0.40
2019-03-04T09:49:56.216Z,0.50
2019-03-04T09:52:24.294Z,0.30
2019-03-04T09:54:52.378Z,0.60
2019-03-04T09:57:20.530Z,0.45
2019-03-04T09:59:48.665Z,0.40
2019-03-04T10:02:17.900Z,0.57
2019-03-04T10:04:56.669Z,0.35
2019-03-04T10:07:32.526Z,0.53
2019-03-04T10:10:18.897Z,1.02
2019-03-04T10:12:54.277Z,0.50
2019-03-04T10:15:24.013Z,0.80
2019-03-04T10:18:19.019Z,0.63
2019-03-04T10:21:05.258Z,0.80
2019-03-04T10:23:37.849Z,0.50
2019-03-04T10:26:24.116Z,1.00
2019-03-04T10:29:10.311Z,0.75
2019-03-04T10:31:39.996Z,0.70
2019-03-04T10:34:21.872Z,0.65
2019-03-04T10:37:09.594Z,0.62
2019-03-04T10:39:41.995Z,0.60
2019-03-04T10:42:17.617Z,0.40
2019-03-04T10:44:56.495Z,0.50
2019-03-04T10:47:24.709Z,0.40
2019-03-04T10:49:52.803Z,0.60
2019-03-04T10:52:21.050Z,0.50
2019-03-04T10:54:49.121Z,0.50
2019-03-04T10:57:17.182Z,0.47
2019-03-04T10:59:45.252Z,0.50
2019-03-04T11:02:13.490Z,0.50
2019-03-04T11:04:41.611Z,0.55
2019-03-04T11:07:09.756Z,0.30
2019-03-04T11:09:37.847Z,0.35
2019-03-04T11:12:06.004Z,0.33
2019-03-04T11:14:34.190Z,0.30
2019-03-04T11:17:02.423Z,0.30
2019-03-04T11:19:30.576Z,0.37
2019-03-04T11:21:58.651Z,0.40
2019-03-04T11:24:26.771Z,0.35
2019-03-04T11:26:55.999Z,0.75
2019-03-04T11:29:24.060Z,0.60
2019-03-04T11:31:52.141Z,0.57
2019-03-04T11:34:20.293Z,0.70
2019-03-04T11:36:49.471Z,0.40
2019-03-04T11:39:21.086Z,0.40
2019-03-04T11:41:49.303Z,0.45
2019-03-04T11:44:17.432Z,0.80
2019-03-04T11:46:45.602Z,0.37
2019-03-04T11:49:13.778Z,0.50
2019-03-04T11:51:41.905Z,0.50
2019-03-04T11:54:10.093Z,0.80
2019-03-04T11:56:38.252Z,0.70
2019-03-04T11:59:06.551Z,0.40
2019-03-04T12:01:39.350Z,0.42
2019-03-04T12:04:07.535Z,0.33
2019-03-04T12:06:35.767Z,0.25
2019-03-04T12:09:07.421Z,0.40
2019-03-04T12:11:38.409Z,0.50
2019-03-04T12:14:06.717Z,0.40
2019-03-04T12:16:35.011Z,0.23
2019-03-04T12:19:03.326Z,0.30
2019-03-04T12:21:31.538Z,0.30
2019-03-04T12:23:59.874Z,0.28
2019-03-04T12:26:27.928Z,0.40
2019-03-04T12:28:55.987Z,0.50
2019-03-04T12:31:25.729Z,0.28
2019-03-04T12:33:53.800Z,0.40
2019-03-04T12:36:22.958Z,0.30
2019-03-04T12:38:51.277Z,0.40
2019-03-04T12:41:19.478Z,0.40
2019-03-04T12:43:47.574Z,0.50
2019-03-04T12:46:15.662Z,0.30
2019-03-04T12:48:43.840Z,0.40
2019-03-04T12:51:11.997Z,0.50
2019-03-04T12:53:44.254Z,0.45
2019-03-04T12:56:14.157Z,0.20
2019-03-04T12:58:42.286Z,0.10
2019-03-04T13:01:10.608Z,0.20
2019-03-04T13:03:38.687Z,0.10
2019-03-04T13:06:06.791Z,0.30
2019-03-04T13:08:35.001Z,0.03
2019-03-04T13:11:03.450Z,0.10
2019-03-04T13:13:31.583Z,0.13
2019-03-04T13:16:00.549Z,0.10
2019-03-04T13:18:28.621Z,0.10
2019-03-04T13:20:56.764Z,0.10
2019-03-04T13:23:25.256Z,0.20
2019-03-04T13:25:53.424Z,0.10
2019-03-04T13:28:21.589Z,0.10
2019-03-04T13:30:49.714Z,0.10
2019-03-04T13:33:17.791Z,0.10
2019-03-04T13:35:45.945Z,0.03
2019-03-04T13:38:14.370Z,0.10
2019-03-04T13:40:42.520Z,0.10
2019-03-04T13:43:10.580Z,0.10
2019-03-04T13:45:38.668Z,0.10
2019-03-04T13:48:06.882Z,0.20
2019-03-04T13:50:36.274Z,0.30
2019-03-04T13:53:04.869Z,0.30
2019-03-04T13:55:33.015Z,0.28
2019-03-04T13:58:01.165Z,0.20
2019-03-04T14:00:33.486Z,0.28
2019-03-04T14:03:01.699Z,0.40
2019-03-04T14:05:31.435Z,0.30
2019-03-04T14:07:59.582Z,0.50
2019-03-04T14:10:41.386Z,0.40
2019-03-04T14:13:09.948Z,0.30
2019-03-04T14:15:39.510Z,0.40
2019-03-04T14:18:07.689Z,0.40
2019-03-04T14:20:35.862Z,0.50
2019-03-04T14:23:04.292Z,0.50
2019-03-04T14:25:32.490Z,0.40
2019-03-04T14:28:01.542Z,0.50
2019-03-04T14:30:29.708Z,0.42
2019-03-04T14:32:58.060Z,0.60
2019-03-04T14:35:26.568Z,0.60
2019-03-04T14:37:54.725Z,0.65
2019-03-04T14:40:23.152Z,0.60
2019-03-04T14:42:51.502Z,0.70
2019-03-04T14:45:23.591Z,0.62
2019-03-04T14:47:51.806Z,0.70
2019-03-04T14:50:20.623Z,0.70
2019-03-04T14:52:48.836Z,0.90
2019-03-04T14:55:20.498Z,0.80
2019-03-04T14:57:48.710Z,0.70
2019-03-04T15:00:37.352Z,0.60
2019-03-04T15:03:06.490Z,0.90
2019-03-04T15:05:35.670Z,0.70
2019-03-04T15:08:04.126Z,0.80
2019-03-04T15:10:32.609Z,0.60
2019-03-04T15:13:00.732Z,1.00
2019-03-04T15:15:30.603Z,0.78
2019-03-04T15:17:58.758Z,0.60
2019-03-04T15:20:28.024Z,1.00
2019-03-04T15:22:56.262Z,1.00
2019-03-04T15:25:28.314Z,0.95
2019-03-04T15:27:57.947Z,0.80
2019-03-04T15:30:26.041Z,0.80
2019-03-04T15:32:54.204Z,1.02
2019-03-04T15:35:22.370Z,1.00
2019-03-04T15:37:50.471Z,1.00
2019-03-04T15:40:18.574Z,0.85
2019-03-04T15:42:46.681Z,0.90
2019-03-04T15:45:14.941Z,0.80
2019-03-04T15:47:43.284Z,1.00
2019-03-04T15:50:11.490Z,0.90
2019-03-04T15:52:39.740Z,1.30
2019-03-04T15:55:11.665Z,1.00
2019-03-04T15:57:39.912Z,0.90
2019-03-04T16:00:09.516Z,1.05
2019-03-04T16:02:37.706Z,0.88
2019-03-04T16:05:07.674Z,0.93
2019-03-04T16:07:35.884Z,1.10
2019-03-04T16:10:05.962Z,1.27
2019-03-04T16:12:36.409Z,1.12
2019-03-04T16:15:07.742Z,1.02
2019-03-04T16:17:35.966Z,0.80
2019-03-04T16:20:15.577Z,0.90
2019-03-04T16:22:35.442Z,0.82
2019-03-04T16:25:03.791Z,1.10
2019-03-04T16:27:31.992Z,1.20
2019-03-04T16:30:00.311Z,1.00
2019-03-04T16:32:28.495Z,0.98
2019-03-04T16:34:56.719Z,1.10
2019-03-04T16:37:24.869Z,1.50
2019-03-04T16:39:53.056Z,0.95
2019-03-04T16:42:21.345Z,1.10
2019-03-04T16:44:49.464Z,1.00
2019-03-04T16:47:17.553Z,0.90
2019-03-04T16:49:45.730Z,0.90
2019-03-04T16:52:14.123Z,0.90
2019-03-04T16:54:42.296Z,1.10
2019-03-04T16:57:11.036Z,0.70
2019-03-04T16:59:39.237Z,0.70
2019-03-04T17:02:07.396Z,1.02
2019-03-04T17:04:35.556Z,1.20
2019-03-04T17:07:04.338Z,1.00
2019-03-04T17:09:32.879Z,1.17
2019-03-04T17:12:01.033Z,1.42
2019-03-04T17:14:29.184Z,1.45
2019-03-04T17:16:57.353Z,1.00
2019-03-04T17:19:25.571Z,0.95
2019-03-04T17:21:53.709Z,0.82
2019-03-04T17:24:21.895Z,1.02
2019-03-04T17:26:50.049Z,0.62
2019-03-04T17:29:18.298Z,1.07
2019-03-04T17:31:46.366Z,1.00
2019-03-04T17:34:14.468Z,1.17
2019-03-04T17:36:42.644Z,0.98
2019-03-04T17:39:11.271Z,1.00
2019-03-04T17:41:40.495Z,0.90
2019-03-04T17:44:08.665Z,0.90
2019-03-04T17:46:36.806Z,0.90
2019-03-04T17:49:05.055Z,1.10
2019-03-04T17:51:33.369Z,0.90
2019-03-04T17:54:01.535Z,1.00
2019-03-04T17:56:29.758Z,1.12
2019-03-04T17:58:57.955Z,0.72
2019-03-04T18:01:26.032Z,1.12
2019-03-04T18:03:54.288Z,1.00
2019-03-04T18:06:22.373Z,0.80
2019-03-04T18:08:50.486Z,1.20
2019-03-04T18:11:18.557Z,1.05
2019-03-04T18:13:46.673Z,0.80
2019-03-04T18:16:14.827Z,0.88
2019-03-04T18:18:42.934Z,0.80
2019-03-04T18:21:11.244Z,1.32
2019-03-04T18:23:42.278Z,1.00
2019-03-04T18:26:12.011Z,0.70
2019-03-04T18:28:44.386Z,1.00
2019-03-04T18:31:18.160Z,0.93
2019-03-04T18:34:04.358Z,1.00
2019-03-04T18:36:33.995Z,1.10
2019-03-04T18:39:15.920Z,1.20
2019-03-04T18:41:48.676Z,1.15
2019-03-04T18:44:18.443Z,1.32
2019-03-04T18:46:51.573Z,0.78
2019-03-04T18:49:19.853Z,1.10
2019-03-04T18:51:48.657Z,1.10
2019-03-04T18:54:16.987Z,0.95
2019-03-04T18:56:45.254Z,0.80
2019-03-04T18:59:13.506Z,0.90
2019-03-04T19:01:43.085Z,1.42
2019-03-04T19:04:11.214Z,1.17
2019-03-04T19:06:39.423Z,1.20
2019-03-04T19:09:07.829Z,1.60
2019-03-04T19:11:37.722Z,1.10
2019-03-04T19:14:05.994Z,1.07
2019-03-04T19:16:35.286Z,1.17
2019-03-04T19:19:04.457Z,1.20
2019-03-04T19:21:32.767Z,1.72
2019-03-04T19:24:01.001Z,1.40
2019-03-04T19:26:29.107Z,0.90
2019-03-04T19:28:57.299Z,1.10
2019-03-04T19:31:25.492Z,1.30
2019-03-04T19:33:53.749Z,1.22
2019-03-04T19:36:21.879Z,0.82
2019-03-04T19:38:50.048Z,1.02
2019-03-04T19:41:18.730Z,0.80
2019-03-04T19:43:46.858Z,1.37
2019-03-04T19:46:15.844Z,1.20
2019-03-04T19:48:44.074Z,1.17
2019-03-04T19:51:13.726Z,1.30
2019-03-04T19:53:42.058Z,1.20
2019-03-04T19:56:10.354Z,1.35
2019-03-04T19:58:38.633Z,1.52
2019-03-04T20:01:07.043Z,1.37
2019-03-04T20:03:35.385Z,1.27
2019-03-04T20:06:04.737Z,1.50
2019-03-04T20:08:33.088Z,1.45
2019-03-04T20:11:01.302Z,1.47
2019-03-04T20:13:29.487Z,1.47
2019-03-04T20:15:57.806Z,1.50
2019-03-04T20:18:27.393Z,1.57
2019-03-04T20:20:55.549Z,1.25
2019-03-04T20:23:23.646Z,1.42
2019-03-04T20:25:52.612Z,1.20
2019-03-04T20:28:23.644Z,1.30
2019-03-04T20:30:52.087Z,1.05
2019-03-04T20:33:20.764Z,1.50
2019-03-04T20:35:49.115Z,1.30
2019-03-04T20:38:21.538Z,1.60
2019-03-04T20:40:50.275Z,1.45
2019-03-04T20:43:18.583Z,1.80
2019-03-04T20:45:46.753Z,1.40
2019-03-04T20:48:15.205Z,1.57
2019-03-04T20:50:43.554Z,1.67
2019-03-04T20:53:11.732Z,1.42
2019-03-04T20:55:39.861Z,1.40
2019-03-04T20:58:07.959Z,1.42
2019-03-04T21:00:37.623Z,1.70
2019-03-04T21:03:06.326Z,1.45
2019-03-04T21:05:35.825Z,1.20
2019-03-04T21:08:04.204Z,1.00
2019-03-04T21:10:32.615Z,1.02
2019-03-04T21:13:02.565Z,1.20
2019-03-04T21:15:30.859Z,1.25
2019-03-04T21:17:59.015Z,1.20
2019-03-04T21:20:27.256Z,1.02
2019-03-04T21:22:55.881Z,0.90
2019-03-04T21:25:43.763Z,0.70
2019-03-04T21:28:16.335Z,0.78
2019-03-04T21:30:50.811Z,0.70
2019-03-04T21:33:19.696Z,1.22
2019-03-04T21:36:04.770Z,1.27
2019-03-04T21:38:33.089Z,1.17
2019-03-04T21:41:02.879Z,1.00
2019-03-04T21:43:35.825Z,0.97
2019-03-04T21:46:22.008Z,1.25
2019-03-04T21:48:51.705Z,1.67
2019-03-04T21:51:37.911Z,1.52
2019-03-04T21:53:58.887Z,1.42
2019-03-04T21:56:28.613Z,1.72
2019-03-04T21:58:57.156Z,1.60
2019-03-04T22:01:42.311Z,1.20
2019-03-04T22:04:10.540Z,1.10
2019-03-04T22:06:38.785Z,1.72
2019-03-04T22:09:07.721Z,1.95
2019-03-04T22:11:39.066Z,1.70
2019-03-04T22:14:07.791Z,1.20
2019-03-04T22:16:37.241Z,1.32
2019-03-04T22:19:07.024Z,1.42
2019-03-04T22:21:35.213Z,1.40
2019-03-04T22:24:03.591Z,1.42
2019-03-04T22:26:31.806Z,1.32
2019-03-04T22:28:59.930Z,1.60
2019-03-04T22:31:28.111Z,1.37
2019-03-04T22:33:56.343Z,1.50
2019-03-04T22:36:27.331Z,1.60
2019-03-04T22:38:55.494Z,1.30
2019-03-04T22:41:23.682Z,1.47
2019-03-04T22:43:51.841Z,1.30
2019-03-04T22:46:21.246Z,1.22
2019-03-04T22:48:49.450Z,1.10
2019-03-04T22:51:18.062Z,1.10
2019-03-04T22:53:46.254Z,1.40
2019-03-04T22:56:15.585Z,1.30
2019-03-04T22:58:43.962Z,1.50
2019-03-04T23:01:15.320Z,1.40
2019-03-04T23:03:45.006Z,1.55
2019-03-04T23:06:30.018Z,1.30
2019-03-04T23:08:58.161Z,1.55
2019-03-04T23:11:27.835Z,1.35
2019-03-04T23:14:06.426Z,0.80
2019-03-04T23:16:34.585Z,1.30
2019-03-04T23:19:02.660Z,1.00
2019-03-04T23:21:30.891Z,1.00
2019-03-04T23:23:59.159Z,0.88
2019-03-04T23:26:27.262Z,1.10
2019-03-04T23:28:55.662Z,1.35
2019-03-04T23:31:23.985Z,1.00
2019-03-04T23:33:52.047Z,0.82
2019-03-04T23:36:22.116Z,1.32
2019-03-04T23:38:50.202Z,1.30
2019-03-04T23:41:18.294Z,1.30
2019-03-04T23:43:46.425Z,1.30
2019-03-04T23:46:14.599Z,1.10
2019-03-04T23:48:43.899Z,1.00
2019-03-04T23:51:12.075Z,1.02
2019-03-04T23:53:40.287Z,1.05
2019-03-04T23:56:08.636Z,1.27
2019-03-04T23:58:37.197Z,1.57
